createdAt,value
2023-01-02T08:48:00.604Z,4.50
2023-01-02T08:50:48.159Z,4.70
2023-01-02T08:53:16.215Z,4.90
2023-01-02T08:55:44.278Z,4.63
2023-01-02T09:02:16.433Z,5.30
2023-01-02T09:04:44.662Z,4.90
2023-01-02T09:07:12.689Z,5.30
2023-01-02T09:09:40.787Z,5.33
2023-01-02T09:12:08.997Z,5.97
2023-01-02T09:14:37.172Z,5.77
2023-01-02T09:17:05.275Z,5.80
2023-01-02T09:19:34.861Z,4.57
2023-01-02T09:22:03.127Z,4.63
2023-01-02T09:24:31.203Z,4.23
2023-01-02T09:26:59.357Z,3.97
2023-01-02T09:29:27.500Z,3.60
2023-01-02T09:31:55.573Z,3.10
2023-01-02T09:34:23.692Z,3.80
2023-01-02T09:36:53.458Z,4.30
2023-01-02T09:39:24.499Z,3.53
2023-01-02T09:41:59.943Z,3.67
2023-01-02T09:44:33.085Z,4.03
2023-01-02T09:47:05.160Z,3.97
2023-01-02T09:49:36.200Z,4.20
2023-01-02T09:52:08.232Z,4.57
2023-01-02T09:54:36.300Z,4.33
2023-01-02T09:57:34.440Z,4.37
2023-01-02T10:00:06.649Z,4.20
2023-01-02T10:02:48.642Z,3.90
2023-01-02T10:05:47.871Z,3.87
2023-01-02T10:08:31.952Z,3.87
2023-01-02T10:11:10.126Z,3.30
2023-01-02T10:16:36.853Z,3.20
2023-01-02T10:19:11.104Z,3.33
2023-01-02T10:21:40.543Z,3.10
2023-01-02T10:24:17.787Z,2.40
2023-01-02T10:26:50.576Z,2.87
2023-01-02T10:29:26.422Z,2.60
2023-01-02T10:40:56.077Z,1.90
2023-01-02T10:43:24.217Z,2.30
2023-01-02T10:45:52.291Z,2.50
2023-01-02T10:48:22.997Z,2.70
2023-01-02T10:50:55.585Z,2.30
2023-01-02T10:53:32.469Z,2.63
2023-01-02T10:56:05.173Z,2.30
2023-01-02T10:58:35.479Z,1.93
2023-01-02T11:01:08.470Z,2.20
2023-01-02T11:03:36.653Z,2.10
2023-01-02T11:06:25.778Z,2.10
2023-01-02T11:08:58.173Z,2.37
2023-01-02T11:11:30.030Z,2.40
2023-01-02T11:14:06.935Z,2.53
2023-01-02T11:16:39.852Z,5.53
2023-01-02T11:19:08.906Z,3.30
2023-01-02T11:21:40.052Z,2.77
2023-01-02T11:24:16.315Z,2.73
2023-01-02T11:26:47.388Z,2.57
2023-01-02T11:29:19.411Z,2.00
2023-01-02T11:31:57.419Z,1.73
2023-01-02T11:34:32.612Z,2.20
2023-01-02T11:37:15.455Z,1.90
2023-01-02T11:39:57.537Z,1.47
2023-01-02T11:42:49.255Z,1.83
2023-01-02T11:45:18.800Z,2.00
2023-01-02T11:47:50.219Z,2.00
2023-01-02T11:50:23.557Z,2.33
2023-01-02T11:52:57.418Z,1.50
2023-01-02T11:55:40.598Z,1.57
2023-01-02T11:58:18.940Z,1.40
2023-01-02T12:00:50.613Z,1.23
2023-01-02T12:03:23.424Z,1.77
2023-01-02T12:06:03.378Z,1.97
2023-01-02T12:08:50.993Z,1.73
2023-01-02T12:11:29.992Z,2.30
2023-01-02T12:14:13.836Z,1.90
2023-01-02T12:16:52.205Z,1.70
2023-01-02T12:19:59.284Z,2.47
2023-01-02T12:23:02.624Z,1.80
2023-01-02T12:25:48.977Z,1.70
2023-01-02T12:28:54.982Z,1.60
2023-01-02T12:31:39.290Z,1.20
2023-01-02T12:34:19.067Z,1.40
2023-01-02T12:36:57.086Z,1.30
2023-01-02T12:39:50.793Z,1.20
2023-01-02T12:42:38.369Z,1.50
2023-01-02T12:45:14.498Z,1.40
2023-01-02T12:47:57.664Z,1.57
2023-01-02T12:50:46.885Z,1.50
2023-01-02T12:53:27.275Z,1.20
2023-01-02T12:56:08.142Z,1.07
2023-01-02T12:58:49.138Z,1.70
2023-01-02T13:01:22.434Z,1.20
2023-01-02T13:04:13.767Z,1.40
2023-01-02T13:06:47.955Z,1.40
2023-01-02T13:09:23.390Z,0.97
2023-01-02T13:11:57.673Z,1.30
2023-01-02T13:14:31.432Z,1.20
2023-01-02T13:17:09.222Z,1.00
2023-01-02T13:19:44.568Z,1.43
2023-01-02T13:22:21.344Z,1.10
2023-01-02T13:24:50.863Z,1.23
2023-01-02T13:27:19.156Z,1.30
2023-01-02T13:29:47.554Z,0.80
2023-01-02T13:32:26.806Z,1.00
2023-01-02T13:34:57.552Z,0.90
2023-01-02T13:37:28.215Z,0.90
2023-01-02T13:39:58.578Z,0.90
2023-01-02T13:42:47.327Z,1.10
2023-01-02T13:45:18.234Z,1.17
2023-01-02T13:47:52.263Z,1.20
2023-01-02T13:50:26.264Z,1.07
2023-01-02T13:53:08.232Z,0.83
2023-01-02T13:55:37.322Z,1.10
2023-01-02T13:58:37.585Z,0.90
2023-01-02T14:01:27.966Z,0.87
2023-01-02T14:04:29.217Z,1.00
2023-01-02T14:07:39.147Z,1.00
2023-01-02T14:10:34.825Z,1.10
2023-01-02T14:13:13.273Z,1.00
2023-01-02T14:16:02.976Z,1.00
2023-01-02T14:43:38.620Z,2.50
2023-01-02T14:46:12.282Z,2.63
2023-01-02T14:48:49.746Z,2.00
2023-01-02T14:51:23.186Z,2.00
2023-01-02T14:53:55.555Z,1.50
2023-01-02T14:56:28.028Z,1.53
2023-01-02T14:58:59.023Z,1.50
2023-01-02T15:01:43.474Z,1.30
2023-01-02T15:04:21.419Z,1.57
2023-01-02T15:09:30.733Z,1.07
2023-01-02T15:12:17.885Z,1.00
2023-01-02T15:20:19.773Z,1.73
2023-01-02T15:22:48.661Z,2.13
2023-01-02T15:27:44.032Z,1.90
2023-01-02T15:30:24.448Z,1.70
2023-01-02T15:32:52.507Z,2.17
2023-01-02T15:35:23.538Z,1.80
